createdAt,value
2018-06-14T00:00:23.357Z,93.90
2018-06-14T00:02:51.764Z,93.90
2018-06-14T00:05:20.157Z,93.90
2018-06-14T00:07:48.596Z,93.90
2018-06-14T00:10:17.019Z,94.00
2018-06-14T00:12:45.450Z,94.00
2018-06-14T00:15:14.083Z,94.00
2018-06-14T00:17:42.488Z,94.00
2018-06-14T00:20:11.073Z,94.00
2018-06-14T00:22:39.530Z,94.00
2018-06-14T00:25:07.965Z,94.00
2018-06-14T00:27:36.381Z,94.00
2018-06-14T00:30:04.940Z,94.10
2018-06-14T00:32:33.376Z,94.00
2018-06-14T00:35:01.758Z,94.00
2018-06-14T00:37:30.182Z,94.10
2018-06-14T00:39:58.661Z,94.10
2018-06-14T00:42:27.078Z,94.10
2018-06-14T00:44:55.510Z,94.10
2018-06-14T00:47:23.921Z,94.10
2018-06-14T00:49:52.437Z,94.10
2018-06-14T00:52:20.851Z,94.10
2018-06-14T00:54:49.296Z,94.00
2018-06-14T00:57:26.858Z,93.90
2018-06-14T00:59:55.797Z,93.80
2018-06-14T01:02:24.194Z,93.70
2018-06-14T01:04:52.625Z,93.70
2018-06-14T01:07:21.041Z,93.60
2018-06-14T01:09:49.548Z,93.50
2018-06-14T01:12:18.993Z,93.60
2018-06-14T01:14:47.436Z,93.50
2018-06-14T01:17:15.841Z,93.60
2018-06-14T01:22:12.357Z,93.40
2018-06-14T01:24:40.987Z,93.30
2018-06-14T01:27:10.665Z,93.10
2018-06-14T01:29:39.150Z,93.10
2018-06-14T01:32:07.563Z,93.00
2018-06-14T01:34:35.998Z,92.90
2018-06-14T01:37:04.444Z,92.80
2018-06-14T01:39:32.864Z,92.80
2018-06-14T01:42:01.391Z,92.80
2018-06-14T01:44:29.808Z,92.70
2018-06-14T01:46:58.209Z,92.70
2018-06-14T01:49:26.621Z,92.80
2018-06-14T01:51:55.026Z,92.70
2018-06-14T01:54:23.439Z,92.80
2018-06-14T01:56:51.805Z,92.80
2018-06-14T01:59:20.403Z,92.60
2018-06-14T02:01:48.792Z,92.70
2018-06-14T02:04:17.232Z,92.50
2018-06-14T02:06:45.624Z,92.50
2018-06-14T02:09:14.034Z,92.50
2018-06-14T02:11:42.441Z,92.50
2018-06-14T02:14:10.852Z,92.30
2018-06-14T02:16:39.541Z,92.30
2018-06-14T02:19:07.962Z,92.60
2018-06-14T02:21:36.433Z,92.60
2018-06-14T02:24:04.845Z,92.80
2018-06-14T02:26:33.240Z,92.90
2018-06-14T02:29:01.657Z,92.90
2018-06-14T02:31:30.065Z,93.00
2018-06-14T02:36:26.613Z,92.90
2018-06-14T02:38:54.996Z,92.80
2018-06-14T02:41:23.423Z,92.70
2018-06-14T02:43:51.853Z,92.60
2018-06-14T02:49:27.616Z,92.60
2018-06-14T02:51:56.065Z,92.60
2018-06-14T02:54:24.480Z,92.50
2018-06-14T02:56:52.905Z,92.40
2018-06-14T02:59:21.357Z,92.40
2018-06-14T03:01:49.805Z,92.40
2018-06-14T03:04:18.244Z,92.40
2018-06-14T03:06:46.726Z,92.40
2018-06-14T03:09:15.150Z,92.50
2018-06-14T03:11:43.849Z,92.50
2018-06-14T03:14:12.365Z,92.20
2018-06-14T03:16:40.870Z,92.10
2018-06-14T03:19:09.302Z,92.10
2018-06-14T03:21:37.784Z,92.30
2018-06-14T03:24:06.241Z,92.30
2018-06-14T03:26:34.685Z,92.40
2018-06-14T03:29:03.116Z,92.30
2018-06-14T03:31:31.767Z,92.30
2018-06-14T03:34:00.186Z,92.30
2018-06-14T03:36:28.669Z,92.40
2018-06-14T03:38:57.092Z,92.40
2018-06-14T03:41:25.563Z,92.30
2018-06-14T03:43:54.017Z,92.30
2018-06-14T03:46:22.470Z,92.30
2018-06-14T03:48:50.906Z,92.20
2018-06-14T03:51:19.349Z,92.10
2018-06-14T03:53:47.762Z,92.00
2018-06-14T03:56:16.181Z,92.10
2018-06-14T03:58:44.625Z,92.00
2018-06-14T04:01:13.048Z,92.00
2018-06-14T04:03:41.524Z,91.80
2018-06-14T04:06:09.980Z,91.80
2018-06-14T04:08:38.393Z,91.70
2018-06-14T04:13:36.061Z,91.50
2018-06-14T04:16:04.517Z,91.30
2018-06-14T04:18:32.968Z,91.30
2018-06-14T04:21:01.405Z,91.30
2018-06-14T04:23:29.821Z,91.20
2018-06-14T04:25:58.270Z,91.30
2018-06-14T04:28:26.681Z,91.30
2018-06-14T04:30:55.124Z,91.30
2018-06-14T04:33:23.550Z,91.30
2018-06-14T04:35:51.996Z,91.30
2018-06-14T04:38:20.466Z,91.20
2018-06-14T04:40:48.933Z,91.30
2018-06-14T04:43:17.372Z,91.40
2018-06-14T04:45:45.844Z,91.60
2018-06-14T04:48:14.570Z,91.80
2018-06-14T04:50:43.073Z,91.60
2018-06-14T04:53:11.500Z,91.60
2018-06-14T04:55:39.988Z,91.30
2018-06-14T04:58:08.445Z,91.20
2018-06-14T05:00:37.045Z,91.40
2018-06-14T05:03:05.753Z,91.20
2018-06-14T05:05:34.181Z,91.40
2018-06-14T05:08:02.636Z,91.50
2018-06-14T05:10:31.071Z,91.40
2018-06-14T05:12:59.520Z,91.10
2018-06-14T05:15:27.945Z,90.30
2018-06-14T05:17:56.424Z,89.90
2018-06-14T05:20:24.828Z,90.30
2018-06-14T05:22:53.285Z,90.10
2018-06-14T05:25:21.767Z,90.20
2018-06-14T05:27:50.205Z,89.00
2018-06-14T05:30:18.606Z,88.80
2018-06-14T05:32:47.040Z,88.80
2018-06-14T05:37:43.671Z,88.30
2018-06-14T05:40:12.085Z,86.60
2018-06-14T05:42:40.795Z,86.60
2018-06-14T05:45:09.189Z,85.70
2018-06-14T05:47:37.655Z,85.90
2018-06-14T05:50:06.131Z,84.80
2018-06-14T05:52:34.564Z,84.80
2018-06-14T05:55:03.060Z,84.00
2018-06-14T05:57:31.553Z,84.20
2018-06-14T05:59:59.993Z,83.90
2018-06-14T06:02:28.445Z,83.80
2018-06-14T06:04:56.893Z,83.10
2018-06-14T06:07:25.341Z,82.10
2018-06-14T06:09:53.790Z,82.60
2018-06-14T06:14:55.996Z,82.30
2018-06-14T06:17:24.428Z,82.50
2018-06-14T06:19:52.857Z,81.80
2018-06-14T06:22:21.351Z,81.00
2018-06-14T06:24:49.770Z,81.30
2018-06-14T06:27:18.172Z,81.50
2018-06-14T06:29:46.616Z,81.70
2018-06-14T06:32:15.058Z,81.30
2018-06-14T06:34:43.508Z,80.60
2018-06-14T06:37:12.029Z,79.60
2018-06-14T06:39:40.541Z,78.90
2018-06-14T06:42:08.987Z,78.10
2018-06-14T06:44:37.450Z,78.40
2018-06-14T06:47:05.885Z,75.30
2018-06-14T06:49:34.316Z,75.10
2018-06-14T06:52:03.497Z,73.70
2018-06-14T06:54:31.944Z,70.90
2018-06-14T06:57:00.360Z,65.50
2018-06-14T06:59:28.889Z,65.30
2018-06-14T07:01:57.297Z,65.20
2018-06-14T07:04:25.720Z,64.50
2018-06-14T07:06:54.149Z,64.20
2018-06-14T07:09:22.700Z,63.10
2018-06-14T07:11:51.181Z,65.20
2018-06-14T07:14:19.596Z,63.80
2018-06-14T07:16:48.013Z,63.10
2018-06-14T07:19:16.462Z,58.90
2018-06-14T07:21:44.917Z,57.60
2018-06-14T07:24:13.362Z,59.00
2018-06-14T07:26:41.883Z,61.70
2018-06-14T07:29:10.325Z,59.40
2018-06-14T07:31:38.733Z,57.20
2018-06-14T07:34:07.176Z,55.30
2018-06-14T07:39:06.128Z,60.10
2018-06-14T07:41:34.541Z,61.50
2018-06-14T07:44:03.020Z,61.70
2018-06-14T07:46:31.752Z,62.70
2018-06-14T07:49:00.724Z,62.90
2018-06-14T07:51:29.376Z,66.90
2018-06-14T07:53:57.819Z,68.00
2018-06-14T07:56:26.260Z,69.50
2018-06-14T07:58:54.946Z,71.40
2018-06-14T08:01:23.592Z,72.70
2018-06-14T08:03:52.097Z,73.90
2018-06-14T08:06:20.509Z,73.70
2018-06-14T08:08:48.969Z,74.10
2018-06-14T08:11:17.403Z,74.90
2018-06-14T08:13:45.850Z,74.90
2018-06-14T08:16:14.277Z,74.60
2018-06-14T08:18:42.729Z,74.00
2018-06-14T08:21:11.170Z,73.40
2018-06-14T08:23:39.606Z,73.50
2018-06-14T08:26:08.048Z,74.00
2018-06-14T08:28:36.461Z,74.50
2018-06-14T08:31:04.965Z,73.10
2018-06-14T08:33:33.396Z,72.70
2018-06-14T08:36:01.877Z,71.50
2018-06-14T08:38:30.469Z,70.60
2018-06-14T08:43:27.061Z,69.90
2018-06-14T08:45:55.700Z,70.20
2018-06-14T08:50:52.357Z,68.50
2018-06-14T08:53:20.776Z,68.50
2018-06-14T08:55:49.231Z,68.30
2018-06-14T08:58:17.653Z,69.20
2018-06-14T09:00:46.109Z,69.80
2018-06-14T09:03:14.525Z,69.00
2018-06-14T09:05:43.043Z,70.00
2018-06-14T09:08:11.452Z,68.30
2018-06-14T09:10:39.910Z,68.10
2018-06-14T09:13:08.427Z,69.10
2018-06-14T09:15:36.873Z,69.50
2018-06-14T09:18:05.420Z,69.60
2018-06-14T09:20:33.904Z,68.60
2018-06-14T09:23:02.349Z,69.80
2018-06-14T09:25:30.968Z,70.40
2018-06-14T09:27:59.397Z,70.00
2018-06-14T09:30:27.900Z,70.80
2018-06-14T09:32:56.510Z,69.20
2018-06-14T09:35:25.376Z,69.60
2018-06-14T09:37:53.777Z,69.50
2018-06-14T09:40:22.225Z,70.10
2018-06-14T09:42:50.720Z,70.20
2018-06-14T09:45:19.124Z,68.90
2018-06-14T09:47:47.541Z,69.00
2018-06-14T09:50:16.052Z,68.40
2018-06-14T09:52:44.532Z,67.20
2018-06-14T09:55:13.772Z,66.90
2018-06-14T09:57:42.198Z,65.90
2018-06-14T10:00:10.733Z,65.20
2018-06-14T10:02:39.629Z,65.30
2018-06-14T10:05:08.069Z,65.60
2018-06-14T10:07:36.480Z,65.70
2018-06-14T10:10:05.070Z,65.30
2018-06-14T10:12:35.122Z,66.00
2018-06-14T10:15:04.337Z,66.30
2018-06-14T10:17:32.804Z,67.70
2018-06-14T10:20:01.425Z,66.90
2018-06-14T10:22:29.874Z,66.30
2018-06-14T10:24:58.293Z,65.90
2018-06-14T10:27:26.777Z,66.80
2018-06-14T10:29:55.178Z,67.20
2018-06-14T10:32:23.615Z,66.80
2018-06-14T10:34:52.065Z,66.70
2018-06-14T10:37:20.516Z,67.70
2018-06-14T10:39:49.035Z,67.70
2018-06-14T10:42:17.510Z,67.70
2018-06-14T10:44:45.938Z,67.50
2018-06-14T10:47:14.384Z,67.10
2018-06-14T10:49:42.800Z,69.10
2018-06-14T10:52:11.273Z,68.50
2018-06-14T10:54:39.701Z,69.00
2018-06-14T10:57:08.161Z,69.70
2018-06-14T10:59:36.613Z,69.20
2018-06-14T11:02:05.104Z,68.80
2018-06-14T11:04:33.545Z,68.70
2018-06-14T11:07:01.990Z,68.90
2018-06-14T11:09:30.414Z,68.60
2018-06-14T11:11:58.864Z,68.10
2018-06-14T11:14:27.304Z,68.70
2018-06-14T11:16:55.745Z,67.60
2018-06-14T11:19:24.200Z,68.20
2018-06-14T11:21:52.667Z,69.40
2018-06-14T11:24:21.085Z,69.70
2018-06-14T11:26:49.524Z,69.00
2018-06-14T11:29:17.961Z,68.90
2018-06-14T11:31:46.388Z,69.00
2018-06-14T11:34:14.793Z,68.80
2018-06-14T11:36:43.250Z,67.60
2018-06-14T11:39:11.692Z,67.10
2018-06-14T11:41:40.162Z,66.50
2018-06-14T11:44:08.767Z,66.30
2018-06-14T11:49:05.468Z,66.00
2018-06-14T11:51:33.927Z,65.80
2018-06-14T11:54:02.324Z,65.70
2018-06-14T11:56:30.720Z,65.90
2018-06-14T11:58:59.209Z,64.00
2018-06-14T12:01:27.633Z,64.20
2018-06-14T12:03:56.084Z,63.80
2018-06-14T12:06:24.501Z,65.20
2018-06-14T12:08:53.017Z,66.10
2018-06-14T12:11:21.435Z,66.10
2018-06-14T12:13:49.904Z,65.20
2018-06-14T12:16:18.312Z,65.80
2018-06-14T12:18:46.758Z,66.50
2018-06-14T12:21:15.249Z,66.60
2018-06-14T12:23:43.736Z,65.50
2018-06-14T12:26:12.145Z,64.30
2018-06-14T12:28:40.593Z,66.00
2018-06-14T12:31:09.010Z,66.90
2018-06-14T12:33:37.453Z,67.70
2018-06-14T12:36:05.905Z,68.60
2018-06-14T12:38:34.349Z,68.90
2018-06-14T12:41:02.822Z,68.50
2018-06-14T12:43:31.275Z,69.00
2018-06-14T12:45:59.700Z,68.90
2018-06-14T12:48:28.133Z,70.90
2018-06-14T12:50:56.555Z,71.00
2018-06-14T12:53:25.165Z,70.60
2018-06-14T12:55:53.584Z,67.20
2018-06-14T12:58:22.029Z,67.30
2018-06-14T13:00:50.460Z,67.80
2018-06-14T13:03:18.949Z,68.60
2018-06-14T13:05:47.365Z,66.20
2018-06-14T13:08:15.797Z,66.90
2018-06-14T13:10:44.410Z,66.10
2018-06-14T13:13:12.882Z,65.90
2018-06-14T13:15:41.345Z,65.50
2018-06-14T13:19:38.949Z,66.50
2018-06-14T13:22:07.383Z,66.30
2018-06-14T13:24:41.196Z,65.90
2018-06-14T13:27:10.157Z,66.20
2018-06-14T13:29:38.814Z,65.20
2018-06-14T13:32:07.449Z,64.60
2018-06-14T13:34:35.900Z,64.60
2018-06-14T13:37:04.361Z,64.50
2018-06-14T13:39:32.836Z,65.30
2018-06-14T13:42:01.531Z,65.40
2018-06-14T13:44:29.961Z,65.50
2018-06-14T13:46:58.375Z,65.20
2018-06-14T13:49:26.873Z,65.20
2018-06-14T13:54:23.457Z,65.80
2018-06-14T13:56:52.069Z,67.20
2018-06-14T13:59:20.518Z,67.50
2018-06-14T14:01:48.925Z,68.70
2018-06-14T14:04:17.354Z,69.00
2018-06-14T14:06:45.841Z,68.30
2018-06-14T14:09:14.298Z,66.90
2018-06-14T14:11:42.745Z,66.30
2018-06-14T14:14:11.192Z,66.20
2018-06-14T14:16:39.626Z,67.40
2018-06-14T14:19:08.085Z,66.60
2018-06-14T14:21:36.519Z,67.10
2018-06-14T14:24:04.981Z,68.20
2018-06-14T14:26:33.477Z,67.60
2018-06-14T14:29:01.920Z,67.50
2018-06-14T14:31:30.325Z,68.10
2018-06-14T14:33:58.762Z,67.00
2018-06-14T14:36:27.187Z,68.00
2018-06-14T14:38:55.613Z,67.80
2018-06-14T14:41:24.058Z,68.50
2018-06-14T14:43:52.476Z,68.90
2018-06-14T14:46:20.912Z,68.90
2018-06-14T14:48:49.325Z,68.40
2018-06-14T14:51:17.773Z,67.50
2018-06-14T14:53:46.194Z,68.70
2018-06-14T14:56:14.641Z,68.30
2018-06-14T14:58:43.055Z,67.40
2018-06-14T15:01:11.541Z,66.80
2018-06-14T15:03:39.949Z,66.70
2018-06-14T15:06:08.405Z,67.00
2018-06-14T15:08:36.837Z,67.10
2018-06-14T15:11:05.352Z,67.80
2018-06-14T15:13:33.802Z,67.80
2018-06-14T15:16:02.258Z,68.20
2018-06-14T15:18:30.688Z,68.50
2018-06-14T15:20:59.157Z,68.40
2018-06-14T15:23:27.892Z,67.60
2018-06-14T15:25:56.921Z,67.60
2018-06-14T15:28:25.544Z,68.00
2018-06-14T15:30:54.005Z,68.60
2018-06-14T15:33:22.404Z,69.00
2018-06-14T15:35:50.825Z,68.70
2018-06-14T15:40:47.437Z,68.50
2018-06-14T15:43:15.829Z,68.20
2018-06-14T15:45:44.333Z,67.80
2018-06-14T15:48:12.816Z,67.60
2018-06-14T15:50:41.245Z,67.30
2018-06-14T15:53:09.733Z,67.70
2018-06-14T15:55:59.941Z,67.80
2018-06-14T15:58:28.925Z,68.40
2018-06-14T16:00:57.632Z,68.50
2018-06-14T16:03:26.189Z,67.10
2018-06-14T16:08:22.925Z,67.00
2018-06-14T16:10:51.678Z,67.50
2018-06-14T16:13:20.603Z,67.30
2018-06-14T16:15:49.109Z,68.00
2018-06-14T16:18:17.769Z,68.20
2018-06-14T16:20:47.112Z,67.50
2018-06-14T16:23:15.568Z,68.00
2018-06-14T16:25:44.014Z,68.40
2018-06-14T16:28:12.461Z,69.20
2018-06-14T16:30:40.909Z,68.10
2018-06-14T16:33:09.769Z,69.40
2018-06-14T16:35:38.232Z,68.80
2018-06-14T16:38:06.705Z,68.80
2018-06-14T16:40:35.130Z,68.10
2018-06-14T16:43:03.580Z,68.10
2018-06-14T16:45:32.069Z,67.80
2018-06-14T16:48:00.497Z,68.70
2018-06-14T16:50:28.925Z,67.80
2018-06-14T16:52:57.511Z,67.60
2018-06-14T16:55:26.001Z,67.60
2018-06-14T16:57:54.573Z,68.10
2018-06-14T17:00:23.028Z,68.60
2018-06-14T17:02:51.478Z,68.50
2018-06-14T17:05:19.956Z,69.40
2018-06-14T17:07:48.440Z,69.40
2018-06-14T17:10:16.896Z,70.00
2018-06-14T17:12:45.356Z,70.20
2018-06-14T17:15:13.773Z,70.30
2018-06-14T17:17:42.198Z,70.30
2018-06-14T17:20:10.602Z,70.40
2018-06-14T17:22:39.054Z,71.20
2018-06-14T17:25:07.477Z,71.20
2018-06-14T17:27:35.956Z,71.40
2018-06-14T17:30:04.498Z,71.30
2018-06-14T17:32:32.939Z,71.30
2018-06-14T17:35:01.362Z,71.90
2018-06-14T17:37:29.853Z,72.00
2018-06-14T17:39:58.312Z,72.80
2018-06-14T17:42:26.774Z,72.00
2018-06-14T17:44:55.176Z,71.80
2018-06-14T17:47:23.628Z,71.80
2018-06-14T17:49:52.036Z,71.70
2018-06-14T17:52:20.531Z,71.90
2018-06-14T17:54:48.954Z,72.30
2018-06-14T17:57:17.390Z,72.40
2018-06-14T17:59:45.829Z,72.80
2018-06-14T18:02:14.256Z,72.80
2018-06-14T18:04:42.716Z,73.10
2018-06-14T18:07:11.153Z,73.20
2018-06-14T18:09:40.028Z,73.90
2018-06-14T18:12:08.536Z,73.70
2018-06-14T18:14:37.023Z,73.80
2018-06-14T18:17:05.474Z,73.90
2018-06-14T18:19:33.888Z,74.70
2018-06-14T18:22:02.313Z,75.60
2018-06-14T18:24:30.756Z,75.80
2018-06-14T18:26:59.192Z,76.10
2018-06-14T18:29:27.627Z,75.80
2018-06-14T18:31:56.089Z,75.80
2018-06-14T18:36:52.748Z,76.20
2018-06-14T18:39:21.200Z,76.20
2018-06-14T18:41:49.641Z,75.90
2018-06-14T18:44:18.197Z,76.60
2018-06-14T18:46:46.620Z,77.00
2018-06-14T18:49:15.069Z,77.00
2018-06-14T18:51:43.493Z,77.20
2018-06-14T18:54:11.928Z,77.50
2018-06-14T18:56:40.364Z,77.70
2018-06-14T18:59:08.804Z,77.80
2018-06-14T19:01:37.506Z,77.70
2018-06-14T19:04:05.975Z,78.30
2018-06-14T19:06:34.442Z,78.60
2018-06-14T19:09:03.210Z,78.70
2018-06-14T19:11:31.837Z,78.80
2018-06-14T19:14:00.316Z,78.70
2018-06-14T19:16:28.867Z,78.90
2018-06-14T19:18:57.376Z,79.10
2018-06-14T19:23:53.928Z,79.40
2018-06-14T19:26:22.402Z,79.50
2018-06-14T19:28:51.294Z,79.80
2018-06-14T19:31:19.721Z,79.70
2018-06-14T19:33:48.301Z,79.70
2018-06-14T19:36:16.764Z,80.00
2018-06-14T19:38:45.300Z,80.10
2018-06-14T19:41:13.758Z,79.70
2018-06-14T19:43:42.289Z,80.10
2018-06-14T19:46:10.799Z,80.10
2018-06-14T19:48:39.225Z,80.10
2018-06-14T19:51:07.704Z,80.10
2018-06-14T19:53:36.120Z,80.10
2018-06-14T19:56:04.725Z,80.30
2018-06-14T19:58:33.325Z,80.50
2018-06-14T20:01:01.832Z,81.00
2018-06-14T20:03:30.228Z,81.10
2018-06-14T20:05:58.677Z,81.40
2018-06-14T20:10:55.296Z,82.10
2018-06-14T20:13:23.700Z,82.40
2018-06-14T20:15:52.123Z,82.30
2018-06-14T20:18:20.524Z,82.10
2018-06-14T20:20:49.083Z,83.00
2018-06-14T20:23:17.457Z,83.10
2018-06-14T20:25:45.897Z,83.20
2018-06-14T20:28:14.358Z,83.10
2018-06-14T20:30:42.817Z,83.30
2018-06-14T20:33:11.249Z,83.90
2018-06-14T20:35:39.694Z,84.00
2018-06-14T20:38:08.144Z,84.20
2018-06-14T20:40:36.569Z,84.20
2018-06-14T20:43:04.969Z,84.40
2018-06-14T20:45:33.504Z,84.60
2018-06-14T20:48:01.911Z,84.90
2018-06-14T20:50:30.344Z,85.10
2018-06-14T20:52:58.760Z,84.90
2018-06-14T20:55:27.205Z,85.10
2018-06-14T20:57:55.622Z,85.10
2018-06-14T21:00:24.053Z,84.90
2018-06-14T21:02:52.513Z,84.70
2018-06-14T21:05:20.929Z,84.50
2018-06-14T21:07:49.704Z,84.70
2018-06-14T21:10:18.145Z,84.70
2018-06-14T21:12:46.573Z,84.80
2018-06-14T21:15:14.989Z,84.80
2018-06-14T21:17:43.476Z,84.90
2018-06-14T21:20:12.026Z,84.50
2018-06-14T21:22:40.469Z,84.30
2018-06-14T21:25:08.893Z,84.30
2018-06-14T21:27:37.404Z,84.60
2018-06-14T21:32:34.169Z,85.10
2018-06-14T21:35:02.613Z,85.30
2018-06-14T21:37:31.097Z,85.40
2018-06-14T21:39:59.524Z,85.40
2018-06-14T21:42:28.017Z,85.40
2018-06-14T21:44:56.431Z,85.30
2018-06-14T21:47:24.882Z,85.20
2018-06-14T21:49:53.501Z,85.40
2018-06-14T21:52:21.953Z,85.60
2018-06-14T21:54:50.391Z,85.70
2018-06-14T21:57:18.847Z,85.60
2018-06-14T21:59:47.290Z,85.60
2018-06-14T22:02:15.745Z,85.60
2018-06-14T22:04:44.182Z,85.80
2018-06-14T22:07:14.214Z,85.90
2018-06-14T22:09:43.365Z,86.00
2018-06-14T22:12:12.286Z,86.00
2018-06-14T22:14:40.743Z,86.60
2018-06-14T22:17:10.071Z,86.60
2018-06-14T22:19:38.469Z,86.60
2018-06-14T22:22:07.101Z,86.90
2018-06-14T22:24:35.895Z,86.90
2018-06-14T22:27:04.579Z,87.00
2018-06-14T22:29:32.990Z,87.10
2018-06-14T22:32:01.420Z,87.30
2018-06-14T22:34:41.087Z,87.40
2018-06-14T22:37:09.541Z,87.40
2018-06-14T22:39:37.950Z,87.40
2018-06-14T22:42:06.398Z,87.40
2018-06-14T22:44:34.887Z,87.70
2018-06-14T22:47:03.305Z,87.80
2018-06-14T22:49:31.709Z,87.80
2018-06-14T22:53:06.168Z,87.80
2018-06-14T22:55:34.621Z,87.80
2018-06-14T23:00:55.220Z,88.00
2018-06-14T23:03:23.925Z,88.20
2018-06-14T23:05:52.585Z,88.00
2018-06-14T23:08:21.017Z,88.00
2018-06-14T23:11:00.622Z,88.00
2018-06-14T23:13:29.113Z,88.00
2018-06-14T23:15:57.557Z,88.10
2018-06-14T23:18:25.963Z,88.00
2018-06-14T23:20:54.394Z,88.00
2018-06-14T23:23:22.801Z,88.00
2018-06-14T23:25:51.278Z,88.00
2018-06-14T23:28:19.688Z,88.00
2018-06-14T23:30:48.144Z,88.10
2018-06-14T23:33:16.580Z,88.00
2018-06-14T23:35:45.000Z,88.00
2018-06-14T23:38:13.406Z,88.00
2018-06-14T23:40:41.841Z,87.80
2018-06-14T23:45:38.525Z,88.00
2018-06-14T23:48:06.908Z,88.30
2018-06-14T23:50:35.373Z,88.30
2018-06-14T23:53:03.849Z,88.20
2018-06-14T23:55:32.273Z,88.30
2018-06-14T23:58:00.677Z,88.40
